sensor_id;sensor_type;location;lat;lon;timestamp;P1;durP1;ratioP1;P2;durP2;ratioP2
59273;SDS011;45044;41.572;24.730;2024-03-08T00:00:11;10.27;;;6.95;;
59273;SDS011;45044;41.572;24.730;2024-03-08T00:02:41;12.38;;;6.85;;
59273;SDS011;45044;41.572;24.730;2024-03-08T00:05:09;13.18;;;7.80;;
59273;SDS011;45044;41.572;24.730;2024-03-08T00:07:36;15.13;;;8.57;;
59273;SDS011;45044;41.572;24.730;2024-03-08T00:10:04;13.43;;;7.05;;
59273;SDS011;45044;41.572;24.730;2024-03-08T00:12:31;12.40;;;7.05;;
59273;SDS011;45044;41.572;24.730;2024-03-08T00:14:58;11.85;;;6.85;;
59273;SDS011;45044;41.572;24.730;2024-03-08T00:17:25;16.20;;;10.17;;
59273;SDS011;45044;41.572;24.730;2024-03-08T00:19:52;11.38;;;7.10;;
59273;SDS011;45044;41.572;24.730;2024-03-08T00:22:18;10.47;;;6.17;;
59273;SDS011;45044;41.572;24.730;2024-03-08T00:24:45;11.48;;;6.03;;
59273;SDS011;45044;41.572;24.730;2024-03-08T00:27:12;11.85;;;6.97;;
59273;SDS011;45044;41.572;24.730;2024-03-08T00:29:39;13.55;;;7.25;;
59273;SDS011;45044;41.572;24.730;2024-03-08T00:32:06;13.70;;;7.57;;
59273;SDS011;45044;41.572;24.730;2024-03-08T00:34:37;13.40;;;6.70;;
59273;SDS011;45044;41.572;24.730;2024-03-08T00:37:04;9.27;;;5.37;;
59273;SDS011;45044;41.572;24.730;2024-03-08T00:39:30;10.10;;;5.03;;
59273;SDS011;45044;41.572;24.730;2024-03-08T00:41:57;7.30;;;4.35;;
59273;SDS011;45044;41.572;24.730;2024-03-08T00:44:24;11.70;;;5.32;;
59273;SDS011;45044;41.572;24.730;2024-03-08T00:46:51;13.23;;;7.03;;
59273;SDS011;45044;41.572;24.730;2024-03-08T00:49:20;11.57;;;6.32;;
59273;SDS011;45044;41.572;24.730;2024-03-08T00:51:48;11.55;;;5.88;;
59273;SDS011;45044;41.572;24.730;2024-03-08T00:54:14;11.07;;;6.13;;
59273;SDS011;45044;41.572;24.730;2024-03-08T00:56:43;8.60;;;5.55;;
59273;SDS011;45044;41.572;24.730;2024-03-08T00:59:09;10.93;;;5.38;;
59273;SDS011;45044;41.572;24.730;2024-03-08T01:01:36;12.43;;;6.63;;
59273;SDS011;45044;41.572;24.730;2024-03-08T01:04:03;9.63;;;5.53;;
59273;SDS011;45044;41.572;24.730;2024-03-08T01:06:30;9.07;;;5.47;;
59273;SDS011;45044;41.572;24.730;2024-03-08T01:08:57;10.60;;;5.63;;
59273;SDS011;45044;41.572;24.730;2024-03-08T01:11:24;9.80;;;5.65;;
59273;SDS011;45044;41.572;24.730;2024-03-08T01:13:51;12.23;;;6.13;;
59273;SDS011;45044;41.572;24.730;2024-03-08T01:16:19;13.03;;;6.90;;
59273;SDS011;45044;41.572;24.730;2024-03-08T01:18:47;9.35;;;5.45;;
59273;SDS011;45044;41.572;24.730;2024-03-08T01:21:14;10.85;;;5.68;;
59273;SDS011;45044;41.572;24.730;2024-03-08T01:23:41;13.00;;;5.68;;
59273;SDS011;45044;41.572;24.730;2024-03-08T01:26:08;14.20;;;6.87;;
59273;SDS011;45044;41.572;24.730;2024-03-08T01:28:35;9.20;;;5.20;;
59273;SDS011;45044;41.572;24.730;2024-03-08T01:31:02;9.47;;;4.80;;
59273;SDS011;45044;41.572;24.730;2024-03-08T01:33:30;11.37;;;5.67;;
59273;SDS011;45044;41.572;24.730;2024-03-08T01:35:58;10.38;;;5.57;;
59273;SDS011;45044;41.572;24.730;2024-03-08T01:38:25;10.25;;;5.43;;
59273;SDS011;45044;41.572;24.730;2024-03-08T01:40:51;10.98;;;5.53;;
59273;SDS011;45044;41.572;24.730;2024-03-08T01:43:20;54.03;;;21.40;;
59273;SDS011;45044;41.572;24.730;2024-03-08T01:46:05;32.55;;;14.35;;
59273;SDS011;45044;41.572;24.730;2024-03-08T01:48:52;10.70;;;5.40;;
59273;SDS011;45044;41.572;24.730;2024-03-08T01:51:36;8.55;;;4.45;;
59273;SDS011;45044;41.572;24.730;2024-03-08T01:54:04;8.93;;;5.20;;
59273;SDS011;45044;41.572;24.730;2024-03-08T01:56:31;8.63;;;4.68;;
59273;SDS011;45044;41.572;24.730;2024-03-08T01:58:58;9.47;;;5.10;;
59273;SDS011;45044;41.572;24.730;2024-03-08T02:01:26;8.63;;;5.45;;
59273;SDS011;45044;41.572;24.730;2024-03-08T02:03:54;9.90;;;5.57;;
59273;SDS011;45044;41.572;24.730;2024-03-08T02:06:21;11.47;;;6.07;;
59273;SDS011;45044;41.572;24.730;2024-03-08T02:08:48;8.97;;;4.93;;
59273;SDS011;45044;41.572;24.730;2024-03-08T02:11:15;9.53;;;5.27;;
59273;SDS011;45044;41.572;24.730;2024-03-08T02:13:42;8.13;;;4.18;;
59273;SDS011;45044;41.572;24.730;2024-03-08T02:16:09;10.43;;;5.17;;
59273;SDS011;45044;41.572;24.730;2024-03-08T02:18:36;9.55;;;5.15;;
59273;SDS011;45044;41.572;24.730;2024-03-08T02:21:06;9.13;;;5.03;;
59273;SDS011;45044;41.572;24.730;2024-03-08T02:23:36;7.80;;;4.50;;
59273;SDS011;45044;41.572;24.730;2024-03-08T02:26:05;8.95;;;4.50;;
59273;SDS011;45044;41.572;24.730;2024-03-08T02:28:32;12.10;;;5.53;;
59273;SDS011;45044;41.572;24.730;2024-03-08T02:31:00;7.60;;;4.05;;
59273;SDS011;45044;41.572;24.730;2024-03-08T02:33:27;10.33;;;4.90;;
59273;SDS011;45044;41.572;24.730;2024-03-08T02:35:56;11.75;;;5.60;;
59273;SDS011;45044;41.572;24.730;2024-03-08T02:38:23;11.43;;;7.10;;
59273;SDS011;45044;41.572;24.730;2024-03-08T02:40:52;25.20;;;11.60;;
59273;SDS011;45044;41.572;24.730;2024-03-08T02:43:20;20.43;;;8.70;;
59273;SDS011;45044;41.572;24.730;2024-03-08T02:45:51;13.73;;;7.15;;
59273;SDS011;45044;41.572;24.730;2024-03-08T02:48:19;6.97;;;4.07;;
59273;SDS011;45044;41.572;24.730;2024-03-08T02:50:47;8.60;;;4.20;;
59273;SDS011;45044;41.572;24.730;2024-03-08T02:53:14;9.87;;;5.13;;
59273;SDS011;45044;41.572;24.730;2024-03-08T02:55:41;10.77;;;5.47;;
59273;SDS011;45044;41.572;24.730;2024-03-08T02:58:08;9.03;;;4.47;;
59273;SDS011;45044;41.572;24.730;2024-03-08T03:00:37;10.60;;;5.03;;
59273;SDS011;45044;41.572;24.730;2024-03-08T03:03:07;11.90;;;5.40;;
59273;SDS011;45044;41.572;24.730;2024-03-08T03:05:34;8.68;;;4.53;;
59273;SDS011;45044;41.572;24.730;2024-03-08T03:08:01;10.70;;;5.10;;
59273;SDS011;45044;41.572;24.730;2024-03-08T03:10:30;10.37;;;5.20;;
59273;SDS011;45044;41.572;24.730;2024-03-08T03:12:59;12.10;;;6.53;;
59273;SDS011;45044;41.572;24.730;2024-03-08T03:15:26;12.00;;;5.70;;
59273;SDS011;45044;41.572;24.730;2024-03-08T03:17:53;12.83;;;7.13;;
59273;SDS011;45044;41.572;24.730;2024-03-08T03:20:22;9.53;;;5.13;;
59273;SDS011;45044;41.572;24.730;2024-03-08T03:23:10;10.30;;;5.20;;
59273;SDS011;45044;41.572;24.730;2024-03-08T03:25:41;10.60;;;5.40;;
59273;SDS011;45044;41.572;24.730;2024-03-08T03:28:08;12.83;;;6.40;;
59273;SDS011;45044;41.572;24.730;2024-03-08T03:30:37;11.67;;;6.43;;
59273;SDS011;45044;41.572;24.730;2024-03-08T03:33:04;12.10;;;6.03;;
59273;SDS011;45044;41.572;24.730;2024-03-08T03:35:35;14.53;;;6.33;;
59273;SDS011;45044;41.572;24.730;2024-03-08T03:38:03;11.73;;;5.50;;
59273;SDS011;45044;41.572;24.730;2024-03-08T03:40:30;10.17;;;5.53;;
59273;SDS011;45044;41.572;24.730;2024-03-08T03:42:58;12.03;;;5.60;;
59273;SDS011;45044;41.572;24.730;2024-03-08T03:45:25;12.07;;;6.90;;
59273;SDS011;45044;41.572;24.730;2024-03-08T03:47:52;12.37;;;7.90;;
59273;SDS011;45044;41.572;24.730;2024-03-08T03:50:19;12.83;;;6.80;;
59273;SDS011;45044;41.572;24.730;2024-03-08T03:52:46;13.63;;;6.93;;
59273;SDS011;45044;41.572;24.730;2024-03-08T03:55:14;12.60;;;6.97;;
59273;SDS011;45044;41.572;24.730;2024-03-08T03:57:41;13.30;;;6.97;;
59273;SDS011;45044;41.572;24.730;2024-03-08T04:00:08;14.60;;;8.50;;
59273;SDS011;45044;41.572;24.730;2024-03-08T04:02:38;16.83;;;9.63;;
59273;SDS011;45044;41.572;24.730;2024-03-08T04:05:05;18.03;;;9.90;;
59273;SDS011;45044;41.572;24.730;2024-03-08T04:07:34;18.17;;;10.27;;
59273;SDS011;45044;41.572;24.730;2024-03-08T04:10:02;20.60;;;11.83;;
59273;SDS011;45044;41.572;24.730;2024-03-08T04:12:29;19.90;;;11.87;;
59273;SDS011;45044;41.572;24.730;2024-03-08T04:14:56;18.43;;;10.20;;
59273;SDS011;45044;41.572;24.730;2024-03-08T04:17:23;17.23;;;9.00;;
59273;SDS011;45044;41.572;24.730;2024-03-08T04:19:52;16.33;;;9.25;;
59273;SDS011;45044;41.572;24.730;2024-03-08T04:22:20;14.80;;;9.37;;
59273;SDS011;45044;41.572;24.730;2024-03-08T04:24:46;16.27;;;8.27;;
59273;SDS011;45044;41.572;24.730;2024-03-08T04:27:13;15.13;;;8.40;;
59273;SDS011;45044;41.572;24.730;2024-03-08T04:29:43;18.07;;;10.13;;
59273;SDS011;45044;41.572;24.730;2024-03-08T04:32:10;16.73;;;10.20;;
59273;SDS011;45044;41.572;24.730;2024-03-08T04:34:40;18.13;;;9.93;;
59273;SDS011;45044;41.572;24.730;2024-03-08T04:37:11;17.27;;;10.93;;
59273;SDS011;45044;41.572;24.730;2024-03-08T04:39:40;15.83;;;10.03;;
59273;SDS011;45044;41.572;24.730;2024-03-08T04:42:07;20.23;;;10.23;;
59273;SDS011;45044;41.572;24.730;2024-03-08T04:44:43;17.37;;;10.10;;
59273;SDS011;45044;41.572;24.730;2024-03-08T04:47:11;27.10;;;14.60;;
59273;SDS011;45044;41.572;24.730;2024-03-08T04:49:38;21.07;;;11.27;;
59273;SDS011;45044;41.572;24.730;2024-03-08T04:52:05;15.63;;;10.63;;
59273;SDS011;45044;41.572;24.730;2024-03-08T04:54:33;19.63;;;10.43;;
59273;SDS011;45044;41.572;24.730;2024-03-08T04:57:01;20.63;;;10.30;;
59273;SDS011;45044;41.572;24.730;2024-03-08T04:59:32;25.97;;;15.57;;
59273;SDS011;45044;41.572;24.730;2024-03-08T05:01:59;16.73;;;9.60;;
59273;SDS011;45044;41.572;24.730;2024-03-08T05:04:26;31.33;;;15.43;;
59273;SDS011;45044;41.572;24.730;2024-03-08T05:06:58;20.00;;;11.37;;
59273;SDS011;45044;41.572;24.730;2024-03-08T05:09:27;19.60;;;11.90;;
59273;SDS011;45044;41.572;24.730;2024-03-08T05:11:55;14.50;;;8.03;;
59273;SDS011;45044;41.572;24.730;2024-03-08T05:14:26;28.03;;;13.07;;
59273;SDS011;45044;41.572;24.730;2024-03-08T05:16:53;30.67;;;13.90;;
59273;SDS011;45044;41.572;24.730;2024-03-08T05:19:20;17.47;;;12.10;;
59273;SDS011;45044;41.572;24.730;2024-03-08T05:21:48;24.73;;;14.40;;
59273;SDS011;45044;41.572;24.730;2024-03-08T05:24:16;22.67;;;13.43;;
59273;SDS011;45044;41.572;24.730;2024-03-08T05:26:45;21.87;;;14.07;;
59273;SDS011;45044;41.572;24.730;2024-03-08T05:29:14;18.53;;;12.43;;
59273;SDS011;45044;41.572;24.730;2024-03-08T05:31:51;19.27;;;12.13;;
59273;SDS011;45044;41.572;24.730;2024-03-08T05:34:21;36.27;;;20.73;;
59273;SDS011;45044;41.572;24.730;2024-03-08T05:36:49;36.57;;;20.83;;
59273;SDS011;45044;41.572;24.730;2024-03-08T05:39:17;34.97;;;21.73;;
59273;SDS011;45044;41.572;24.730;2024-03-08T05:41:46;27.23;;;18.40;;
59273;SDS011;45044;41.572;24.730;2024-03-08T05:44:13;25.90;;;17.57;;
59273;SDS011;45044;41.572;24.730;2024-03-08T05:46:41;24.47;;;16.80;;
59273;SDS011;45044;41.572;24.730;2024-03-08T05:49:08;25.27;;;16.10;;
59273;SDS011;45044;41.572;24.730;2024-03-08T05:51:38;23.40;;;14.07;;
59273;SDS011;45044;41.572;24.730;2024-03-08T05:54:07;35.63;;;19.90;;
59273;SDS011;45044;41.572;24.730;2024-03-08T05:56:41;35.27;;;20.17;;
59273;SDS011;45044;41.572;24.730;2024-03-08T05:59:11;28.97;;;17.83;;
59273;SDS011;45044;41.572;24.730;2024-03-08T06:01:40;29.23;;;18.70;;
59273;SDS011;45044;41.572;24.730;2024-03-08T06:04:08;36.23;;;21.17;;
59273;SDS011;45044;41.572;24.730;2024-03-08T06:06:38;45.90;;;24.63;;
59273;SDS011;45044;41.572;24.730;2024-03-08T06:09:04;33.00;;;20.53;;
59273;SDS011;45044;41.572;24.730;2024-03-08T06:11:42;56.13;;;29.60;;
59273;SDS011;45044;41.572;24.730;2024-03-08T06:14:09;60.73;;;31.57;;
59273;SDS011;45044;41.572;24.730;2024-03-08T06:16:36;35.67;;;20.90;;
59273;SDS011;45044;41.572;24.730;2024-03-08T06:19:02;19.27;;;13.10;;
59273;SDS011;45044;41.572;24.730;2024-03-08T06:21:30;25.73;;;17.10;;
59273;SDS011;45044;41.572;24.730;2024-03-08T06:23:56;20.43;;;14.73;;
59273;SDS011;45044;41.572;24.730;2024-03-08T06:26:27;32.00;;;20.83;;
59273;SDS011;45044;41.572;24.730;2024-03-08T06:28:56;43.83;;;24.15;;
59273;SDS011;45044;41.572;24.730;2024-03-08T06:31:24;30.57;;;21.73;;
59273;SDS011;45044;41.572;24.730;2024-03-08T06:33:51;35.80;;;22.37;;
59273;SDS011;45044;41.572;24.730;2024-03-08T06:36:22;32.73;;;22.07;;
59273;SDS011;45044;41.572;24.730;2024-03-08T06:38:49;32.78;;;20.75;;
59273;SDS011;45044;41.572;24.730;2024-03-08T06:41:16;29.13;;;18.93;;
59273;SDS011;45044;41.572;24.730;2024-03-08T06:43:43;35.10;;;22.87;;
59273;SDS011;45044;41.572;24.730;2024-03-08T06:46:10;36.03;;;21.80;;
59273;SDS011;45044;41.572;24.730;2024-03-08T06:48:40;31.50;;;22.02;;
59273;SDS011;45044;41.572;24.730;2024-03-08T06:51:07;35.37;;;19.10;;
59273;SDS011;45044;41.572;24.730;2024-03-08T06:53:37;24.57;;;16.27;;
59273;SDS011;45044;41.572;24.730;2024-03-08T06:56:05;21.77;;;13.20;;
59273;SDS011;45044;41.572;24.730;2024-03-08T06:58:33;26.23;;;16.83;;
59273;SDS011;45044;41.572;24.730;2024-03-08T07:01:01;30.73;;;16.63;;
59273;SDS011;45044;41.572;24.730;2024-03-08T07:03:30;23.77;;;15.57;;
59273;SDS011;45044;41.572;24.730;2024-03-08T07:05:59;25.90;;;15.15;;
59273;SDS011;45044;41.572;24.730;2024-03-08T07:08:28;28.23;;;16.60;;
59273;SDS011;45044;41.572;24.730;2024-03-08T07:10:54;21.40;;;15.13;;
59273;SDS011;45044;41.572;24.730;2024-03-08T07:13:22;28.67;;;16.55;;
59273;SDS011;45044;41.572;24.730;2024-03-08T07:15:48;24.77;;;15.93;;
59273;SDS011;45044;41.572;24.730;2024-03-08T07:18:15;29.63;;;17.63;;
59273;SDS011;45044;41.572;24.730;2024-03-08T07:20:43;27.63;;;14.23;;
59273;SDS011;45044;41.572;24.730;2024-03-08T07:23:12;16.45;;;10.45;;
59273;SDS011;45044;41.572;24.730;2024-03-08T07:25:59;15.88;;;9.85;;
59273;SDS011;45044;41.572;24.730;2024-03-08T07:28:27;20.17;;;13.77;;
59273;SDS011;45044;41.572;24.730;2024-03-08T07:30:57;12.05;;;8.02;;
59273;SDS011;45044;41.572;24.730;2024-03-08T07:33:47;10.52;;;6.35;;
59273;SDS011;45044;41.572;24.730;2024-03-08T07:36:13;18.02;;;10.73;;
59273;SDS011;45044;41.572;24.730;2024-03-08T07:38:41;17.35;;;10.63;;
59273;SDS011;45044;41.572;24.730;2024-03-08T07:41:08;34.17;;;23.63;;
59273;SDS011;45044;41.572;24.730;2024-03-08T07:43:36;19.15;;;13.32;;
59273;SDS011;45044;41.572;24.730;2024-03-08T07:46:03;11.27;;;7.20;;
59273;SDS011;45044;41.572;24.730;2024-03-08T07:48:30;15.27;;;12.20;;
59273;SDS011;45044;41.572;24.730;2024-03-08T07:50:59;20.67;;;18.48;;
59273;SDS011;45044;41.572;24.730;2024-03-08T07:53:26;15.02;;;8.70;;
59273;SDS011;45044;41.572;24.730;2024-03-08T07:55:53;13.60;;;7.00;;
59273;SDS011;45044;41.572;24.730;2024-03-08T07:58:19;10.90;;;4.68;;
59273;SDS011;45044;41.572;24.730;2024-03-08T08:00:46;14.98;;;7.45;;
59273;SDS011;45044;41.572;24.730;2024-03-08T08:03:13;13.38;;;5.78;;
59273;SDS011;45044;41.572;24.730;2024-03-08T08:05:40;14.90;;;6.45;;
59273;SDS011;45044;41.572;24.730;2024-03-08T08:08:10;14.38;;;6.25;;
59273;SDS011;45044;41.572;24.730;2024-03-08T08:10:38;5.63;;;3.17;;
59273;SDS011;45044;41.572;24.730;2024-03-08T08:13:05;7.50;;;4.22;;
59273;SDS011;45044;41.572;24.730;2024-03-08T08:15:32;8.10;;;4.07;;
59273;SDS011;45044;41.572;24.730;2024-03-08T08:18:01;8.07;;;4.95;;
59273;SDS011;45044;41.572;24.730;2024-03-08T08:20:33;10.70;;;6.15;;
59273;SDS011;45044;41.572;24.730;2024-03-08T08:22:59;11.07;;;5.50;;
59273;SDS011;45044;41.572;24.730;2024-03-08T08:25:28;10.35;;;5.40;;
59273;SDS011;45044;41.572;24.730;2024-03-08T08:27:56;10.27;;;6.18;;
59273;SDS011;45044;41.572;24.730;2024-03-08T08:30:22;8.95;;;5.22;;
59273;SDS011;45044;41.572;24.730;2024-03-08T08:32:49;13.00;;;7.22;;
59273;SDS011;45044;41.572;24.730;2024-03-08T08:35:17;15.10;;;7.15;;
59273;SDS011;45044;41.572;24.730;2024-03-08T08:37:46;9.07;;;4.75;;
59273;SDS011;45044;41.572;24.730;2024-03-08T08:40:13;9.57;;;5.05;;
59273;SDS011;45044;41.572;24.730;2024-03-08T08:42:44;11.75;;;5.80;;
59273;SDS011;45044;41.572;24.730;2024-03-08T08:45:15;6.35;;;3.35;;
59273;SDS011;45044;41.572;24.730;2024-03-08T08:47:50;8.50;;;5.22;;
59273;SDS011;45044;41.572;24.730;2024-03-08T08:50:18;8.45;;;4.93;;
59273;SDS011;45044;41.572;24.730;2024-03-08T08:52:51;5.90;;;3.00;;
59273;SDS011;45044;41.572;24.730;2024-03-08T08:55:18;8.55;;;5.35;;
59273;SDS011;45044;41.572;24.730;2024-03-08T08:57:48;6.65;;;3.80;;
59273;SDS011;45044;41.572;24.730;2024-03-08T09:00:15;6.28;;;3.38;;
59273;SDS011;45044;41.572;24.730;2024-03-08T09:02:42;8.88;;;5.38;;
59273;SDS011;45044;41.572;24.730;2024-03-08T09:05:09;5.88;;;3.50;;
59273;SDS011;45044;41.572;24.730;2024-03-08T09:07:38;4.97;;;2.58;;
59273;SDS011;45044;41.572;24.730;2024-03-08T09:10:05;5.78;;;3.28;;
59273;SDS011;45044;41.572;24.730;2024-03-08T09:12:43;6.20;;;2.92;;
59273;SDS011;45044;41.572;24.730;2024-03-08T09:15:10;6.53;;;3.30;;
59273;SDS011;45044;41.572;24.730;2024-03-08T09:17:38;7.55;;;3.50;;
59273;SDS011;45044;41.572;24.730;2024-03-08T09:20:06;5.65;;;2.63;;
59273;SDS011;45044;41.572;24.730;2024-03-08T09:22:35;3.53;;;2.00;;
59273;SDS011;45044;41.572;24.730;2024-03-08T09:25:01;6.43;;;3.30;;
59273;SDS011;45044;41.572;24.730;2024-03-08T09:27:31;3.97;;;1.77;;
59273;SDS011;45044;41.572;24.730;2024-03-08T09:29:58;5.47;;;2.45;;
59273;SDS011;45044;41.572;24.730;2024-03-08T09:32:25;4.18;;;2.30;;
59273;SDS011;45044;41.572;24.730;2024-03-08T09:34:53;7.25;;;3.58;;
59273;SDS011;45044;41.572;24.730;2024-03-08T09:37:19;10.38;;;4.60;;
59273;SDS011;45044;41.572;24.730;2024-03-08T09:39:46;13.40;;;5.88;;
59273;SDS011;45044;41.572;24.730;2024-03-08T09:42:14;13.02;;;5.68;;
59273;SDS011;45044;41.572;24.730;2024-03-08T09:44:45;10.63;;;5.38;;
59273;SDS011;45044;41.572;24.730;2024-03-08T09:47:15;16.55;;;7.57;;
59273;SDS011;45044;41.572;24.730;2024-03-08T09:49:44;14.30;;;6.88;;
59273;SDS011;45044;41.572;24.730;2024-03-08T09:52:10;6.80;;;3.63;;
59273;SDS011;45044;41.572;24.730;2024-03-08T09:54:39;9.73;;;4.25;;
59273;SDS011;45044;41.572;24.730;2024-03-08T09:57:06;6.40;;;3.53;;
59273;SDS011;45044;41.572;24.730;2024-03-08T09:59:35;7.80;;;4.38;;
59273;SDS011;45044;41.572;24.730;2024-03-08T10:02:03;8.02;;;4.30;;
59273;SDS011;45044;41.572;24.730;2024-03-08T10:04:31;6.90;;;3.95;;
59273;SDS011;45044;41.572;24.730;2024-03-08T10:07:00;6.00;;;3.30;;
59273;SDS011;45044;41.572;24.730;2024-03-08T10:09:28;6.95;;;3.80;;
59273;SDS011;45044;41.572;24.730;2024-03-08T10:11:58;5.63;;;2.72;;
59273;SDS011;45044;41.572;24.730;2024-03-08T10:14:25;4.75;;;2.10;;
59273;SDS011;45044;41.572;24.730;2024-03-08T10:16:53;6.75;;;3.97;;
59273;SDS011;45044;41.572;24.730;2024-03-08T10:19:20;6.15;;;3.28;;
59273;SDS011;45044;41.572;24.730;2024-03-08T10:21:49;8.38;;;4.20;;
59273;SDS011;45044;41.572;24.730;2024-03-08T10:24:19;4.15;;;2.25;;
59273;SDS011;45044;41.572;24.730;2024-03-08T10:26:46;6.90;;;3.33;;
59273;SDS011;45044;41.572;24.730;2024-03-08T10:29:14;4.32;;;2.42;;
59273;SDS011;45044;41.572;24.730;2024-03-08T10:31:44;4.72;;;2.45;;
59273;SDS011;45044;41.572;24.730;2024-03-08T10:34:13;7.15;;;4.07;;
59273;SDS011;45044;41.572;24.730;2024-03-08T10:36:39;7.72;;;3.92;;
59273;SDS011;45044;41.572;24.730;2024-03-08T10:39:20;15.95;;;13.68;;
59273;SDS011;45044;41.572;24.730;2024-03-08T10:41:52;8.18;;;5.15;;
59273;SDS011;45044;41.572;24.730;2024-03-08T10:49:37;6.30;;;3.55;;
59273;SDS011;45044;41.572;24.730;2024-03-08T10:52:06;5.00;;;2.75;;
59273;SDS011;45044;41.572;24.730;2024-03-08T10:54:36;3.67;;;2.95;;
59273;SDS011;45044;41.572;24.730;2024-03-08T10:57:12;3.45;;;1.90;;
59273;SDS011;45044;41.572;24.730;2024-03-08T10:59:45;2.80;;;1.48;;
59273;SDS011;45044;41.572;24.730;2024-03-08T11:02:16;2.50;;;1.60;;
59273;SDS011;45044;41.572;24.730;2024-03-08T11:04:47;4.80;;;2.47;;
59273;SDS011;45044;41.572;24.730;2024-03-08T11:07:16;4.28;;;2.42;;
59273;SDS011;45044;41.572;24.730;2024-03-08T11:09:49;4.13;;;2.75;;
59273;SDS011;45044;41.572;24.730;2024-03-08T11:14:52;4.72;;;2.05;;
59273;SDS011;45044;41.572;24.730;2024-03-08T11:17:39;5.28;;;2.50;;
59273;SDS011;45044;41.572;24.730;2024-03-08T11:20:11;6.57;;;2.63;;
59273;SDS011;45044;41.572;24.730;2024-03-08T11:22:55;6.03;;;3.13;;
59273;SDS011;45044;41.572;24.730;2024-03-08T11:31:31;5.75;;;3.70;;
59273;SDS011;45044;41.572;24.730;2024-03-08T11:33:35;6.18;;;3.00;;
59273;SDS011;45044;41.572;24.730;2024-03-08T11:36:12;7.88;;;4.03;;
59273;SDS011;45044;41.572;24.730;2024-03-08T11:38:43;5.50;;;3.53;;
59273;SDS011;45044;41.572;24.730;2024-03-08T11:41:10;5.30;;;3.30;;
59273;SDS011;45044;41.572;24.730;2024-03-08T11:43:44;6.37;;;3.40;;
59273;SDS011;45044;41.572;24.730;2024-03-08T11:46:15;13.55;;;6.18;;
59273;SDS011;45044;41.572;24.730;2024-03-08T11:48:43;8.63;;;3.92;;
59273;SDS011;45044;41.572;24.730;2024-03-08T11:51:11;2.75;;;1.40;;
59273;SDS011;45044;41.572;24.730;2024-03-08T11:53:38;4.95;;;2.47;;
59273;SDS011;45044;41.572;24.730;2024-03-08T11:56:12;2.38;;;1.35;;
59273;SDS011;45044;41.572;24.730;2024-03-08T11:58:40;2.90;;;1.80;;
59273;SDS011;45044;41.572;24.730;2024-03-08T12:01:08;5.53;;;2.75;;
59273;SDS011;45044;41.572;24.730;2024-03-08T12:03:39;8.15;;;4.43;;
59273;SDS011;45044;41.572;24.730;2024-03-08T12:06:09;5.25;;;3.03;;
59273;SDS011;45044;41.572;24.730;2024-03-08T12:08:36;3.13;;;1.45;;
59273;SDS011;45044;41.572;24.730;2024-03-08T12:11:06;3.75;;;2.00;;
59273;SDS011;45044;41.572;24.730;2024-03-08T12:13:37;1.90;;;1.50;;
59273;SDS011;45044;41.572;24.730;2024-03-08T12:16:04;1.67;;;1.40;;
59273;SDS011;45044;41.572;24.730;2024-03-08T12:18:37;2.50;;;1.38;;
59273;SDS011;45044;41.572;24.730;2024-03-08T12:21:10;3.58;;;1.60;;
59273;SDS011;45044;41.572;24.730;2024-03-08T12:23:38;4.70;;;2.47;;
59273;SDS011;45044;41.572;24.730;2024-03-08T12:28:49;4.65;;;2.83;;
59273;SDS011;45044;41.572;24.730;2024-03-08T12:31:18;3.10;;;1.60;;
59273;SDS011;45044;41.572;24.730;2024-03-08T12:33:49;12.48;;;6.97;;
59273;SDS011;45044;41.572;24.730;2024-03-08T12:36:23;5.68;;;2.22;;
59273;SDS011;45044;41.572;24.730;2024-03-08T12:38:50;7.90;;;3.85;;
59273;SDS011;45044;41.572;24.730;2024-03-08T12:41:18;11.30;;;5.47;;
59273;SDS011;45044;41.572;24.730;2024-03-08T12:43:45;16.40;;;6.70;;
59273;SDS011;45044;41.572;24.730;2024-03-08T12:46:19;10.98;;;4.72;;
59273;SDS011;45044;41.572;24.730;2024-03-08T12:48:47;7.20;;;4.05;;
59273;SDS011;45044;41.572;24.730;2024-03-08T12:51:15;4.10;;;2.28;;
59273;SDS011;45044;41.572;24.730;2024-03-08T12:53:44;4.60;;;1.80;;
59273;SDS011;45044;41.572;24.730;2024-03-08T12:56:19;4.10;;;2.25;;
59273;SDS011;45044;41.572;24.730;2024-03-08T12:58:54;5.13;;;2.22;;
59273;SDS011;45044;41.572;24.730;2024-03-08T13:01:21;3.20;;;1.98;;
59273;SDS011;45044;41.572;24.730;2024-03-08T13:03:49;3.35;;;1.80;;
59273;SDS011;45044;41.572;24.730;2024-03-08T13:06:22;3.92;;;2.20;;
59273;SDS011;45044;41.572;24.730;2024-03-08T13:08:51;4.15;;;2.30;;
59273;SDS011;45044;41.572;24.730;2024-03-08T13:11:22;8.95;;;5.15;;
59273;SDS011;45044;41.572;24.730;2024-03-08T13:13:50;8.70;;;5.00;;
59273;SDS011;45044;41.572;24.730;2024-03-08T13:16:19;9.77;;;4.90;;
59273;SDS011;45044;41.572;24.730;2024-03-08T13:18:46;7.70;;;4.05;;
59273;SDS011;45044;41.572;24.730;2024-03-08T13:21:20;5.95;;;3.72;;
59273;SDS011;45044;41.572;24.730;2024-03-08T13:23:50;7.30;;;3.85;;
59273;SDS011;45044;41.572;24.730;2024-03-08T13:26:20;21.52;;;9.90;;
59273;SDS011;45044;41.572;24.730;2024-03-08T13:28:50;8.40;;;5.55;;
59273;SDS011;45044;41.572;24.730;2024-03-08T13:31:20;4.70;;;2.50;;
59273;SDS011;45044;41.572;24.730;2024-03-08T13:33:47;6.28;;;3.00;;
59273;SDS011;45044;41.572;24.730;2024-03-08T13:36:14;3.45;;;1.77;;
59273;SDS011;45044;41.572;24.730;2024-03-08T13:38:43;3.75;;;2.53;;
59273;SDS011;45044;41.572;24.730;2024-03-08T13:41:13;17.45;;;8.43;;
59273;SDS011;45044;41.572;24.730;2024-03-08T13:43:45;16.95;;;8.77;;
59273;SDS011;45044;41.572;24.730;2024-03-08T13:46:17;20.42;;;8.88;;
59273;SDS011;45044;41.572;24.730;2024-03-08T13:48:49;27.00;;;14.02;;
59273;SDS011;45044;41.572;24.730;2024-03-08T13:51:17;8.43;;;4.50;;
59273;SDS011;45044;41.572;24.730;2024-03-08T13:53:43;11.02;;;6.32;;
59273;SDS011;45044;41.572;24.730;2024-03-08T13:56:11;11.70;;;7.40;;
59273;SDS011;45044;41.572;24.730;2024-03-08T13:58:38;9.82;;;5.05;;
59273;SDS011;45044;41.572;24.730;2024-03-08T14:01:07;10.68;;;6.20;;
59273;SDS011;45044;41.572;24.730;2024-03-08T14:03:38;10.77;;;5.80;;
59273;SDS011;45044;41.572;24.730;2024-03-08T14:06:11;10.07;;;5.90;;
59273;SDS011;45044;41.572;24.730;2024-03-08T14:08:49;14.82;;;7.75;;
59273;SDS011;45044;41.572;24.730;2024-03-08T14:11:16;11.27;;;6.68;;
59273;SDS011;45044;41.572;24.730;2024-03-08T14:13:48;20.27;;;10.82;;
59273;SDS011;45044;41.572;24.730;2024-03-08T14:16:15;22.80;;;11.38;;
59273;SDS011;45044;41.572;24.730;2024-03-08T14:18:42;18.17;;;10.63;;
59273;SDS011;45044;41.572;24.730;2024-03-08T14:21:09;15.75;;;9.73;;
59273;SDS011;45044;41.572;24.730;2024-03-08T14:23:37;15.25;;;10.20;;
59273;SDS011;45044;41.572;24.730;2024-03-08T14:26:04;12.65;;;7.65;;
59273;SDS011;45044;41.572;24.730;2024-03-08T14:28:34;13.20;;;8.52;;
59273;SDS011;45044;41.572;24.730;2024-03-08T14:31:01;15.45;;;10.85;;
59273;SDS011;45044;41.572;24.730;2024-03-08T14:33:32;12.75;;;8.27;;
59273;SDS011;45044;41.572;24.730;2024-03-08T14:36:01;16.77;;;11.20;;
59273;SDS011;45044;41.572;24.730;2024-03-08T14:38:30;12.50;;;7.20;;
59273;SDS011;45044;41.572;24.730;2024-03-08T14:40:56;18.45;;;10.95;;
59273;SDS011;45044;41.572;24.730;2024-03-08T14:43:25;22.30;;;14.25;;
59273;SDS011;45044;41.572;24.730;2024-03-08T14:45:53;21.48;;;14.27;;
59273;SDS011;45044;41.572;24.730;2024-03-08T14:48:19;13.30;;;9.38;;